sensor_id;sensor_type;location;lat;lon;timestamp;P1;durP1;ratioP1;P2;durP2;ratioP2
21639;SDS011;10981;45.462;10.974;2024-03-25T00:00:56;6.25;;;3.67;;
21639;SDS011;10981;45.462;10.974;2024-03-25T00:03:24;9.13;;;3.75;;
21639;SDS011;10981;45.462;10.974;2024-03-25T00:05:51;8.23;;;3.10;;
21639;SDS011;10981;45.462;10.974;2024-03-25T00:08:18;5.88;;;3.55;;
21639;SDS011;10981;45.462;10.974;2024-03-25T00:10:46;6.40;;;3.53;;
21639;SDS011;10981;45.462;10.974;2024-03-25T00:13:13;5.07;;;3.05;;
21639;SDS011;10981;45.462;10.974;2024-03-25T00:15:40;6.80;;;3.42;;
21639;SDS011;10981;45.462;10.974;2024-03-25T00:18:09;3.05;;;2.50;;
21639;SDS011;10981;45.462;10.974;2024-03-25T00:20:37;4.63;;;2.85;;
21639;SDS011;10981;45.462;10.974;2024-03-25T00:23:05;7.45;;;3.65;;
21639;SDS011;10981;45.462;10.974;2024-03-25T00:25:34;5.32;;;3.58;;
21639;SDS011;10981;45.462;10.974;2024-03-25T00:28:01;6.70;;;3.65;;
21639;SDS011;10981;45.462;10.974;2024-03-25T00:30:28;5.35;;;3.63;;
21639;SDS011;10981;45.462;10.974;2024-03-25T00:32:55;6.47;;;3.90;;
21639;SDS011;10981;45.462;10.974;2024-03-25T00:35:23;6.43;;;3.58;;
21639;SDS011;10981;45.462;10.974;2024-03-25T00:37:50;8.65;;;4.20;;
21639;SDS011;10981;45.462;10.974;2024-03-25T00:40:17;6.63;;;4.03;;
21639;SDS011;10981;45.462;10.974;2024-03-25T00:42:45;7.63;;;3.85;;
21639;SDS011;10981;45.462;10.974;2024-03-25T00:45:12;6.15;;;3.85;;
21639;SDS011;10981;45.462;10.974;2024-03-25T00:47:40;7.72;;;4.47;;
21639;SDS011;10981;45.462;10.974;2024-03-25T00:50:08;6.80;;;3.88;;
21639;SDS011;10981;45.462;10.974;2024-03-25T00:52:35;8.57;;;4.40;;
21639;SDS011;10981;45.462;10.974;2024-03-25T00:55:02;5.68;;;3.88;;
21639;SDS011;10981;45.462;10.974;2024-03-25T00:57:30;9.50;;;4.30;;
21639;SDS011;10981;45.462;10.974;2024-03-25T00:59:57;6.15;;;4.35;;
21639;SDS011;10981;45.462;10.974;2024-03-25T01:02:24;5.95;;;4.10;;
21639;SDS011;10981;45.462;10.974;2024-03-25T01:04:53;6.28;;;3.90;;
21639;SDS011;10981;45.462;10.974;2024-03-25T01:07:23;6.72;;;4.05;;
21639;SDS011;10981;45.462;10.974;2024-03-25T01:09:50;5.82;;;3.30;;
21639;SDS011;10981;45.462;10.974;2024-03-25T01:12:17;7.20;;;3.30;;
21639;SDS011;10981;45.462;10.974;2024-03-25T01:14:44;4.55;;;3.00;;
21639;SDS011;10981;45.462;10.974;2024-03-25T01:17:11;4.80;;;3.40;;
21639;SDS011;10981;45.462;10.974;2024-03-25T01:19:39;5.47;;;3.53;;
21639;SDS011;10981;45.462;10.974;2024-03-25T01:22:06;6.88;;;3.53;;
21639;SDS011;10981;45.462;10.974;2024-03-25T01:24:33;6.13;;;3.97;;
21639;SDS011;10981;45.462;10.974;2024-03-25T01:27:00;5.93;;;3.42;;
21639;SDS011;10981;45.462;10.974;2024-03-25T01:29:28;3.92;;;3.30;;
21639;SDS011;10981;45.462;10.974;2024-03-25T01:31:55;5.65;;;3.50;;
21639;SDS011;10981;45.462;10.974;2024-03-25T01:34:25;8.43;;;3.90;;
21639;SDS011;10981;45.462;10.974;2024-03-25T01:36:53;6.85;;;3.50;;
21639;SDS011;10981;45.462;10.974;2024-03-25T01:39:20;4.53;;;2.88;;
21639;SDS011;10981;45.462;10.974;2024-03-25T01:41:47;6.63;;;3.15;;
21639;SDS011;10981;45.462;10.974;2024-03-25T01:44:15;5.40;;;3.25;;
21639;SDS011;10981;45.462;10.974;2024-03-25T01:46:42;6.60;;;3.13;;
21639;SDS011;10981;45.462;10.974;2024-03-25T01:49:10;7.20;;;3.13;;
21639;SDS011;10981;45.462;10.974;2024-03-25T01:51:38;6.10;;;3.22;;
21639;SDS011;10981;45.462;10.974;2024-03-25T01:54:06;4.30;;;3.05;;
21639;SDS011;10981;45.462;10.974;2024-03-25T01:56:34;5.15;;;3.10;;
21639;SDS011;10981;45.462;10.974;2024-03-25T01:59:02;8.98;;;3.47;;
21639;SDS011;10981;45.462;10.974;2024-03-25T02:01:30;5.35;;;3.05;;
21639;SDS011;10981;45.462;10.974;2024-03-25T02:03:58;7.25;;;3.92;;
21639;SDS011;10981;45.462;10.974;2024-03-25T02:06:28;5.07;;;3.17;;
21639;SDS011;10981;45.462;10.974;2024-03-25T02:08:57;4.60;;;3.15;;
21639;SDS011;10981;45.462;10.974;2024-03-25T02:11:25;10.02;;;4.18;;
21639;SDS011;10981;45.462;10.974;2024-03-25T02:13:53;6.93;;;3.58;;
21639;SDS011;10981;45.462;10.974;2024-03-25T02:16:21;4.47;;;3.28;;
21639;SDS011;10981;45.462;10.974;2024-03-25T02:18:48;6.75;;;3.20;;
21639;SDS011;10981;45.462;10.974;2024-03-25T02:21:16;9.60;;;3.53;;
21639;SDS011;10981;45.462;10.974;2024-03-25T02:23:44;6.38;;;3.42;;
21639;SDS011;10981;45.462;10.974;2024-03-25T02:26:17;8.75;;;3.65;;
21639;SDS011;10981;45.462;10.974;2024-03-25T02:28:45;7.05;;;3.35;;
21639;SDS011;10981;45.462;10.974;2024-03-25T02:31:12;4.78;;;3.10;;
21639;SDS011;10981;45.462;10.974;2024-03-25T02:33:39;5.80;;;3.20;;
21639;SDS011;10981;45.462;10.974;2024-03-25T02:36:08;6.53;;;3.28;;
21639;SDS011;10981;45.462;10.974;2024-03-25T02:38:35;4.32;;;2.92;;
21639;SDS011;10981;45.462;10.974;2024-03-25T02:41:03;5.38;;;3.10;;
21639;SDS011;10981;45.462;10.974;2024-03-25T02:43:30;4.93;;;2.88;;
21639;SDS011;10981;45.462;10.974;2024-03-25T02:45:57;5.15;;;2.80;;
21639;SDS011;10981;45.462;10.974;2024-03-25T02:48:25;4.50;;;3.45;;
21639;SDS011;10981;45.462;10.974;2024-03-25T02:50:53;5.78;;;3.00;;
21639;SDS011;10981;45.462;10.974;2024-03-25T02:53:20;4.10;;;2.40;;
21639;SDS011;10981;45.462;10.974;2024-03-25T02:55:47;4.07;;;2.92;;
21639;SDS011;10981;45.462;10.974;2024-03-25T02:58:14;5.05;;;3.38;;
21639;SDS011;10981;45.462;10.974;2024-03-25T03:00:42;5.47;;;3.17;;
21639;SDS011;10981;45.462;10.974;2024-03-25T03:03:09;5.10;;;2.92;;
21639;SDS011;10981;45.462;10.974;2024-03-25T03:05:39;5.18;;;2.85;;
21639;SDS011;10981;45.462;10.974;2024-03-25T03:08:06;7.00;;;2.85;;
21639;SDS011;10981;45.462;10.974;2024-03-25T03:10:33;5.30;;;2.95;;
21639;SDS011;10981;45.462;10.974;2024-03-25T03:13:00;3.55;;;2.63;;
21639;SDS011;10981;45.462;10.974;2024-03-25T03:15:28;5.38;;;2.90;;
21639;SDS011;10981;45.462;10.974;2024-03-25T03:17:55;3.97;;;2.92;;
21639;SDS011;10981;45.462;10.974;2024-03-25T03:20:22;6.28;;;3.50;;
21639;SDS011;10981;45.462;10.974;2024-03-25T03:22:49;4.28;;;3.28;;
21639;SDS011;10981;45.462;10.974;2024-03-25T03:25:16;5.95;;;3.00;;
21639;SDS011;10981;45.462;10.974;2024-03-25T03:27:43;7.72;;;2.78;;
21639;SDS011;10981;45.462;10.974;2024-03-25T03:30:11;4.38;;;3.15;;
21639;SDS011;10981;45.462;10.974;2024-03-25T03:32:38;5.45;;;3.15;;
21639;SDS011;10981;45.462;10.974;2024-03-25T03:35:05;3.85;;;2.80;;
21639;SDS011;10981;45.462;10.974;2024-03-25T03:37:33;4.20;;;2.92;;
21639;SDS011;10981;45.462;10.974;2024-03-25T03:40:00;5.60;;;2.47;;
21639;SDS011;10981;45.462;10.974;2024-03-25T03:42:28;4.38;;;2.20;;
21639;SDS011;10981;45.462;10.974;2024-03-25T03:44:55;2.88;;;2.15;;
21639;SDS011;10981;45.462;10.974;2024-03-25T03:47:22;5.15;;;2.88;;
21639;SDS011;10981;45.462;10.974;2024-03-25T03:49:49;4.35;;;2.80;;
21639;SDS011;10981;45.462;10.974;2024-03-25T03:52:17;6.15;;;2.35;;
21639;SDS011;10981;45.462;10.974;2024-03-25T03:54:44;3.75;;;3.00;;
21639;SDS011;10981;45.462;10.974;2024-03-25T03:57:11;5.63;;;3.45;;
21639;SDS011;10981;45.462;10.974;2024-03-25T03:59:38;3.60;;;2.75;;
21639;SDS011;10981;45.462;10.974;2024-03-25T04:02:05;3.40;;;2.83;;
21639;SDS011;10981;45.462;10.974;2024-03-25T04:04:34;4.25;;;2.97;;
21639;SDS011;10981;45.462;10.974;2024-03-25T04:07:02;6.65;;;3.03;;
21639;SDS011;10981;45.462;10.974;2024-03-25T04:09:29;3.97;;;2.83;;
21639;SDS011;10981;45.462;10.974;2024-03-25T04:11:56;3.75;;;3.13;;
21639;SDS011;10981;45.462;10.974;2024-03-25T04:14:23;3.35;;;2.97;;
21639;SDS011;10981;45.462;10.974;2024-03-25T04:16:50;5.43;;;2.65;;
21639;SDS011;10981;45.462;10.974;2024-03-25T04:19:19;4.07;;;2.35;;
21639;SDS011;10981;45.462;10.974;2024-03-25T04:21:53;4.03;;;2.30;;
21639;SDS011;10981;45.462;10.974;2024-03-25T04:24:20;3.30;;;1.98;;
21639;SDS011;10981;45.462;10.974;2024-03-25T04:26:47;2.50;;;2.15;;
21639;SDS011;10981;45.462;10.974;2024-03-25T04:29:15;2.75;;;2.05;;
21639;SDS011;10981;45.462;10.974;2024-03-25T04:31:42;3.90;;;2.17;;
21639;SDS011;10981;45.462;10.974;2024-03-25T04:34:10;4.28;;;2.53;;
21639;SDS011;10981;45.462;10.974;2024-03-25T04:36:37;3.03;;;2.08;;
21639;SDS011;10981;45.462;10.974;2024-03-25T04:39:04;2.05;;;1.60;;
21639;SDS011;10981;45.462;10.974;2024-03-25T04:41:34;4.30;;;2.00;;
21639;SDS011;10981;45.462;10.974;2024-03-25T04:44:01;3.15;;;1.90;;
21639;SDS011;10981;45.462;10.974;2024-03-25T04:46:28;2.30;;;1.50;;
21639;SDS011;10981;45.462;10.974;2024-03-25T04:48:56;2.67;;;1.90;;
21639;SDS011;10981;45.462;10.974;2024-03-25T04:51:23;3.75;;;2.20;;
21639;SDS011;10981;45.462;10.974;2024-03-25T04:53:50;2.45;;;1.80;;
21639;SDS011;10981;45.462;10.974;2024-03-25T04:56:19;3.33;;;2.03;;
21639;SDS011;10981;45.462;10.974;2024-03-25T04:58:46;3.92;;;2.10;;
21639;SDS011;10981;45.462;10.974;2024-03-25T05:01:13;3.50;;;1.80;;
21639;SDS011;10981;45.462;10.974;2024-03-25T05:03:40;3.13;;;1.90;;
21639;SDS011;10981;45.462;10.974;2024-03-25T05:06:07;2.25;;;1.67;;
21639;SDS011;10981;45.462;10.974;2024-03-25T05:08:37;1.67;;;1.58;;
21639;SDS011;10981;45.462;10.974;2024-03-25T05:11:04;1.77;;;1.40;;
21639;SDS011;10981;45.462;10.974;2024-03-25T05:13:31;3.53;;;1.75;;
21639;SDS011;10981;45.462;10.974;2024-03-25T05:15:58;3.45;;;2.10;;
21639;SDS011;10981;45.462;10.974;2024-03-25T05:18:26;2.45;;;1.88;;
21639;SDS011;10981;45.462;10.974;2024-03-25T05:21:11;2.33;;;1.58;;
21639;SDS011;10981;45.462;10.974;2024-03-25T05:23:38;2.03;;;1.85;;
21639;SDS011;10981;45.462;10.974;2024-03-25T05:26:07;3.80;;;1.85;;
21639;SDS011;10981;45.462;10.974;2024-03-25T05:28:37;5.05;;;1.95;;
21639;SDS011;10981;45.462;10.974;2024-03-25T05:31:08;4.45;;;1.50;;
21639;SDS011;10981;45.462;10.974;2024-03-25T05:33:35;3.65;;;1.77;;
21639;SDS011;10981;45.462;10.974;2024-03-25T05:36:03;5.15;;;1.70;;
21639;SDS011;10981;45.462;10.974;2024-03-25T05:38:31;4.68;;;2.00;;
21639;SDS011;10981;45.462;10.974;2024-03-25T05:40:58;2.53;;;1.80;;
21639;SDS011;10981;45.462;10.974;2024-03-25T05:43:25;3.22;;;1.38;;
21639;SDS011;10981;45.462;10.974;2024-03-25T05:45:53;2.72;;;1.60;;
21639;SDS011;10981;45.462;10.974;2024-03-25T05:48:21;1.65;;;1.50;;
21639;SDS011;10981;45.462;10.974;2024-03-25T05:51:00;3.92;;;1.77;;
21639;SDS011;10981;45.462;10.974;2024-03-25T05:53:28;2.45;;;1.70;;
21639;SDS011;10981;45.462;10.974;2024-03-25T05:55:55;3.35;;;1.73;;
21639;SDS011;10981;45.462;10.974;2024-03-25T05:58:25;4.28;;;1.60;;
21639;SDS011;10981;45.462;10.974;2024-03-25T06:00:53;5.93;;;2.15;;
21639;SDS011;10981;45.462;10.974;2024-03-25T06:03:21;2.33;;;1.45;;
21639;SDS011;10981;45.462;10.974;2024-03-25T06:05:48;2.80;;;1.50;;
21639;SDS011;10981;45.462;10.974;2024-03-25T06:08:15;3.53;;;1.52;;
21639;SDS011;10981;45.462;10.974;2024-03-25T06:10:54;5.78;;;1.75;;
21639;SDS011;10981;45.462;10.974;2024-03-25T06:13:27;2.42;;;1.52;;
21639;SDS011;10981;45.462;10.974;2024-03-25T06:15:55;1.77;;;1.20;;
21639;SDS011;10981;45.462;10.974;2024-03-25T06:18:22;4.60;;;1.50;;
21639;SDS011;10981;45.462;10.974;2024-03-25T06:20:49;6.47;;;1.20;;
21639;SDS011;10981;45.462;10.974;2024-03-25T06:23:23;3.08;;;1.52;;
21639;SDS011;10981;45.462;10.974;2024-03-25T06:25:52;2.72;;;1.90;;
21639;SDS011;10981;45.462;10.974;2024-03-25T06:28:21;6.72;;;2.38;;
21639;SDS011;10981;45.462;10.974;2024-03-25T06:30:49;2.05;;;1.75;;
21639;SDS011;10981;45.462;10.974;2024-03-25T06:33:36;2.67;;;1.45;;
21639;SDS011;10981;45.462;10.974;2024-03-25T06:36:22;3.83;;;1.98;;
21639;SDS011;10981;45.462;10.974;2024-03-25T06:38:49;7.60;;;3.03;;
21639;SDS011;10981;45.462;10.974;2024-03-25T06:41:16;4.07;;;2.33;;
21639;SDS011;10981;45.462;10.974;2024-03-25T06:43:45;4.93;;;3.30;;
21639;SDS011;10981;45.462;10.974;2024-03-25T06:46:12;7.47;;;2.90;;
21639;SDS011;10981;45.462;10.974;2024-03-25T06:48:39;7.05;;;2.85;;
21639;SDS011;10981;45.462;10.974;2024-03-25T06:51:06;9.63;;;2.70;;
21639;SDS011;10981;45.462;10.974;2024-03-25T06:53:33;5.15;;;3.15;;
21639;SDS011;10981;45.462;10.974;2024-03-25T06:56:00;4.57;;;2.35;;
21639;SDS011;10981;45.462;10.974;2024-03-25T06:58:28;6.18;;;2.65;;
21639;SDS011;10981;45.462;10.974;2024-03-25T07:01:09;9.80;;;5.00;;
21639;SDS011;10981;45.462;10.974;2024-03-25T07:03:39;10.55;;;3.67;;
21639;SDS011;10981;45.462;10.974;2024-03-25T07:06:09;7.35;;;3.38;;
21639;SDS011;10981;45.462;10.974;2024-03-25T07:08:36;9.35;;;3.63;;
21639;SDS011;10981;45.462;10.974;2024-03-25T07:11:06;10.88;;;3.50;;
21639;SDS011;10981;45.462;10.974;2024-03-25T07:13:34;8.15;;;3.10;;
21639;SDS011;10981;45.462;10.974;2024-03-25T07:16:05;7.43;;;3.40;;
21639;SDS011;10981;45.462;10.974;2024-03-25T07:18:34;5.65;;;2.70;;
21639;SDS011;10981;45.462;10.974;2024-03-25T07:21:01;7.35;;;3.40;;
21639;SDS011;10981;45.462;10.974;2024-03-25T07:23:28;7.25;;;2.88;;
21639;SDS011;10981;45.462;10.974;2024-03-25T07:25:55;7.28;;;3.03;;
21639;SDS011;10981;45.462;10.974;2024-03-25T07:28:22;8.18;;;2.40;;
21639;SDS011;10981;45.462;10.974;2024-03-25T07:30:50;5.63;;;3.20;;
21639;SDS011;10981;45.462;10.974;2024-03-25T07:33:17;10.10;;;3.10;;
21639;SDS011;10981;45.462;10.974;2024-03-25T07:35:45;6.30;;;2.80;;
21639;SDS011;10981;45.462;10.974;2024-03-25T07:38:12;11.68;;;3.05;;
21639;SDS011;10981;45.462;10.974;2024-03-25T07:40:39;5.68;;;2.40;;
21639;SDS011;10981;45.462;10.974;2024-03-25T07:43:06;8.20;;;3.10;;
21639;SDS011;10981;45.462;10.974;2024-03-25T07:45:34;7.32;;;3.30;;
21639;SDS011;10981;45.462;10.974;2024-03-25T07:48:01;5.65;;;2.50;;
21639;SDS011;10981;45.462;10.974;2024-03-25T07:50:29;5.18;;;2.53;;
21639;SDS011;10981;45.462;10.974;2024-03-25T07:52:56;4.78;;;2.70;;
21639;SDS011;10981;45.462;10.974;2024-03-25T07:55:24;6.00;;;2.78;;
21639;SDS011;10981;45.462;10.974;2024-03-25T07:57:51;6.70;;;2.88;;
21639;SDS011;10981;45.462;10.974;2024-03-25T08:00:19;8.48;;;3.08;;
21639;SDS011;10981;45.462;10.974;2024-03-25T08:02:46;7.15;;;3.40;;
21639;SDS011;10981;45.462;10.974;2024-03-25T08:05:13;3.90;;;2.60;;
21639;SDS011;10981;45.462;10.974;2024-03-25T08:07:40;6.35;;;2.67;;
21639;SDS011;10981;45.462;10.974;2024-03-25T08:10:08;7.35;;;2.97;;
21639;SDS011;10981;45.462;10.974;2024-03-25T08:12:36;8.27;;;2.95;;
21639;SDS011;10981;45.462;10.974;2024-03-25T08:15:03;7.10;;;2.95;;
21639;SDS011;10981;45.462;10.974;2024-03-25T08:17:30;7.45;;;3.10;;
21639;SDS011;10981;45.462;10.974;2024-03-25T08:19:58;7.22;;;3.22;;
21639;SDS011;10981;45.462;10.974;2024-03-25T08:22:25;4.88;;;2.97;;
21639;SDS011;10981;45.462;10.974;2024-03-25T08:24:52;12.70;;;7.10;;
21639;SDS011;10981;45.462;10.974;2024-03-25T08:27:19;11.27;;;4.70;;
21639;SDS011;10981;45.462;10.974;2024-03-25T08:29:46;9.82;;;4.30;;
21639;SDS011;10981;45.462;10.974;2024-03-25T08:32:15;12.55;;;6.05;;
21639;SDS011;10981;45.462;10.974;2024-03-25T08:34:42;11.80;;;4.63;;
21639;SDS011;10981;45.462;10.974;2024-03-25T08:37:09;9.45;;;4.82;;
21639;SDS011;10981;45.462;10.974;2024-03-25T08:39:37;5.15;;;3.38;;
21639;SDS011;10981;45.462;10.974;2024-03-25T08:42:04;5.82;;;3.00;;
21639;SDS011;10981;45.462;10.974;2024-03-25T08:44:31;4.82;;;2.60;;
21639;SDS011;10981;45.462;10.974;2024-03-25T08:46:58;7.30;;;2.88;;
21639;SDS011;10981;45.462;10.974;2024-03-25T08:49:26;5.63;;;2.55;;
21639;SDS011;10981;45.462;10.974;2024-03-25T08:51:53;4.57;;;2.75;;
21639;SDS011;10981;45.462;10.974;2024-03-25T08:54:20;3.97;;;2.50;;
21639;SDS011;10981;45.462;10.974;2024-03-25T08:56:47;7.78;;;2.95;;
21639;SDS011;10981;45.462;10.974;2024-03-25T08:59:15;5.50;;;2.70;;
21639;SDS011;10981;45.462;10.974;2024-03-25T09:01:42;7.75;;;3.38;;
21639;SDS011;10981;45.462;10.974;2024-03-25T09:04:09;6.28;;;3.28;;
21639;SDS011;10981;45.462;10.974;2024-03-25T09:06:37;5.85;;;2.72;;
21639;SDS011;10981;45.462;10.974;2024-03-25T09:09:04;4.72;;;2.85;;
21639;SDS011;10981;45.462;10.974;2024-03-25T09:11:50;4.25;;;2.90;;
21639;SDS011;10981;45.462;10.974;2024-03-25T09:14:17;3.97;;;2.83;;
21639;SDS011;10981;45.462;10.974;2024-03-25T09:16:44;7.78;;;2.80;;
21639;SDS011;10981;45.462;10.974;2024-03-25T09:19:11;7.95;;;2.88;;
21639;SDS011;10981;45.462;10.974;2024-03-25T09:21:39;5.03;;;2.40;;
21639;SDS011;10981;45.462;10.974;2024-03-25T09:24:06;5.85;;;2.22;;
21639;SDS011;10981;45.462;10.974;2024-03-25T09:26:34;5.55;;;2.70;;
21639;SDS011;10981;45.462;10.974;2024-03-25T09:29:01;4.45;;;2.80;;
21639;SDS011;10981;45.462;10.974;2024-03-25T09:31:29;8.05;;;3.22;;
21639;SDS011;10981;45.462;10.974;2024-03-25T09:33:56;5.15;;;3.17;;
21639;SDS011;10981;45.462;10.974;2024-03-25T09:36:23;5.38;;;3.28;;
21639;SDS011;10981;45.462;10.974;2024-03-25T09:38:51;5.57;;;2.90;;
21639;SDS011;10981;45.462;10.974;2024-03-25T09:41:19;7.40;;;3.22;;
21639;SDS011;10981;45.462;10.974;2024-03-25T09:43:48;7.25;;;3.30;;
21639;SDS011;10981;45.462;10.974;2024-03-25T09:46:20;11.85;;;3.30;;
21639;SDS011;10981;45.462;10.974;2024-03-25T09:48:50;4.90;;;2.70;;
21639;SDS011;10981;45.462;10.974;2024-03-25T09:51:19;5.03;;;2.88;;
21639;SDS011;10981;45.462;10.974;2024-03-25T09:53:47;3.95;;;2.95;;
21639;SDS011;10981;45.462;10.974;2024-03-25T09:56:15;7.13;;;3.35;;
21639;SDS011;10981;45.462;10.974;2024-03-25T09:58:43;5.50;;;3.55;;
21639;SDS011;10981;45.462;10.974;2024-03-25T10:01:11;6.05;;;3.58;;
21639;SDS011;10981;45.462;10.974;2024-03-25T10:03:38;9.38;;;3.28;;
21639;SDS011;10981;45.462;10.974;2024-03-25T10:06:05;6.22;;;3.25;;
21639;SDS011;10981;45.462;10.974;2024-03-25T10:08:37;5.13;;;2.83;;
21639;SDS011;10981;45.462;10.974;2024-03-25T10:13:50;9.02;;;3.35;;
21639;SDS011;10981;45.462;10.974;2024-03-25T10:16:18;4.40;;;2.63;;
21639;SDS011;10981;45.462;10.974;2024-03-25T10:18:45;5.07;;;2.78;;
21639;SDS011;10981;45.462;10.974;2024-03-25T10:21:12;4.65;;;2.85;;
21639;SDS011;10981;45.462;10.974;2024-03-25T10:23:41;5.55;;;3.03;;
21639;SDS011;10981;45.462;10.974;2024-03-25T10:26:10;5.43;;;2.63;;
21639;SDS011;10981;45.462;10.974;2024-03-25T10:28:57;5.82;;;3.15;;
21639;SDS011;10981;45.462;10.974;2024-03-25T10:31:34;6.32;;;3.28;;
21639;SDS011;10981;45.462;10.974;2024-03-25T10:34:04;5.47;;;3.20;;
21639;SDS011;10981;45.462;10.974;2024-03-25T10:36:31;5.25;;;3.05;;
21639;SDS011;10981;45.462;10.974;2024-03-25T10:39:02;4.13;;;2.78;;
21639;SDS011;10981;45.462;10.974;2024-03-25T10:41:33;4.88;;;2.47;;
21639;SDS011;10981;45.462;10.974;2024-03-25T10:44:01;5.72;;;2.70;;
21639;SDS011;10981;45.462;10.974;2024-03-25T10:46:33;3.83;;;2.75;;
21639;SDS011;10981;45.462;10.974;2024-03-25T10:49:03;8.85;;;3.03;;
21639;SDS011;10981;45.462;10.974;2024-03-25T10:51:43;4.88;;;2.63;;
21639;SDS011;10981;45.462;10.974;2024-03-25T10:54:11;2.95;;;2.13;;
21639;SDS011;10981;45.462;10.974;2024-03-25T10:56:40;4.07;;;2.58;;
21639;SDS011;10981;45.462;10.974;2024-03-25T10:59:08;4.40;;;2.40;;
21639;SDS011;10981;45.462;10.974;2024-03-25T11:01:37;7.70;;;2.33;;
21639;SDS011;10981;45.462;10.974;2024-03-25T11:04:05;5.57;;;2.38;;
21639;SDS011;10981;45.462;10.974;2024-03-25T11:06:33;6.57;;;3.08;;
21639;SDS011;10981;45.462;10.974;2024-03-25T11:09:00;6.88;;;2.35;;
21639;SDS011;10981;45.462;10.974;2024-03-25T11:11:31;6.43;;;2.58;;
21639;SDS011;10981;45.462;10.974;2024-03-25T11:14:02;5.13;;;2.55;;
21639;SDS011;10981;45.462;10.974;2024-03-25T11:16:33;4.55;;;2.53;;
21639;SDS011;10981;45.462;10.974;2024-03-25T11:19:02;3.80;;;2.70;;
21639;SDS011;10981;45.462;10.974;2024-03-25T11:21:29;7.05;;;2.42;;
21639;SDS011;10981;45.462;10.974;2024-03-25T11:24:05;3.05;;;1.90;;
21639;SDS011;10981;45.462;10.974;2024-03-25T11:26:33;3.47;;;2.05;;
21639;SDS011;10981;45.462;10.974;2024-03-25T11:29:03;4.10;;;2.83;;
21639;SDS011;10981;45.462;10.974;2024-03-25T11:31:30;2.90;;;2.60;;
21639;SDS011;10981;45.462;10.974;2024-03-25T11:34:06;2.08;;;1.88;;
21639;SDS011;10981;45.462;10.974;2024-03-25T11:36:34;2.13;;;1.83;;
21639;SDS011;10981;45.462;10.974;2024-03-25T11:39:02;4.15;;;1.50;;
21639;SDS011;10981;45.462;10.974;2024-03-25T11:41:33;3.13;;;2.10;;
21639;SDS011;10981;45.462;10.974;2024-03-25T11:44:10;4.20;;;1.95;;
21639;SDS011;10981;45.462;10.974;2024-03-25T11:46:41;3.42;;;3.03;;
21639;SDS011;10981;45.462;10.974;2024-03-25T11:49:12;4.68;;;2.53;;
21639;SDS011;10981;45.462;10.974;2024-03-25T11:51:40;4.25;;;2.20;;
21639;SDS011;10981;45.462;10.974;2024-03-25T11:54:12;7.32;;;2.90;;
21639;SDS011;10981;45.462;10.974;2024-03-25T11:56:40;3.58;;;2.83;;
21639;SDS011;10981;45.462;10.974;2024-03-25T11:59:10;7.57;;;3.13;;
21639;SDS011;10981;45.462;10.974;2024-03-25T12:01:38;4.18;;;2.95;;
21639;SDS011;10981;45.462;10.974;2024-03-25T12:04:09;4.80;;;3.17;;
21639;SDS011;10981;45.462;10.974;2024-03-25T12:06:37;4.80;;;3.08;;
21639;SDS011;10981;45.462;10.974;2024-03-25T12:09:05;3.50;;;2.65;;
21639;SDS011;10981;45.462;10.974;2024-03-25T12:11:50;3.85;;;2.80;;
21639;SDS011;10981;45.462;10.974;2024-03-25T12:14:18;3.50;;;3.08;;
21639;SDS011;10981;45.462;10.974;2024-03-25T12:16:46;5.32;;;3.00;;
21639;SDS011;10981;45.462;10.974;2024-03-25T12:19:15;3.95;;;2.60;;
21639;SDS011;10981;45.462;10.974;2024-03-25T12:21:44;3.47;;;2.60;;
21639;SDS011;10981;45.462;10.974;2024-03-25T12:24:11;4.47;;;2.70;;
21639;SDS011;10981;45.462;10.974;2024-03-25T12:26:39;3.08;;;2.78;;
21639;SDS011;10981;45.462;10.974;2024-03-25T12:29:07;4.38;;;2.58;;
21639;SDS011;10981;45.462;10.974;2024-03-25T12:31:34;7.63;;;3.40;;
21639;SDS011;10981;45.462;10.974;2024-03-25T12:34:09;4.18;;;3.60;;
21639;SDS011;10981;45.462;10.974;2024-03-25T12:36:38;4.78;;;2.58;;
21639;SDS011;10981;45.462;10.974;2024-03-25T12:39:05;5.65;;;2.83;;
21639;SDS011;10981;45.462;10.974;2024-03-25T12:41:41;5.90;;;2.70;;
21639;SDS011;10981;45.462;10.974;2024-03-25T12:44:08;2.55;;;2.35;;
21639;SDS011;10981;45.462;10.974;2024-03-25T12:46:38;3.17;;;2.28;;
21639;SDS011;10981;45.462;10.974;2024-03-25T12:49:06;3.50;;;2.10;;
21639;SDS011;10981;45.462;10.974;2024-03-25T12:51:33;3.60;;;2.33;;
21639;SDS011;10981;45.462;10.974;2024-03-25T12:54:04;3.40;;;2.70;;
21639;SDS011;10981;45.462;10.974;2024-03-25T12:56:31;3.05;;;2.00;;
21639;SDS011;10981;45.462;10.974;2024-03-25T12:58:59;3.28;;;2.70;;
21639;SDS011;10981;45.462;10.974;2024-03-25T13:01:26;4.95;;;2.38;;
21639;SDS011;10981;45.462;10.974;2024-03-25T13:03:54;3.03;;;2.40;;
21639;SDS011;10981;45.462;10.974;2024-03-25T13:06:21;3.15;;;2.55;;
21639;SDS011;10981;45.462;10.974;2024-03-25T13:08:48;3.47;;;2.35;;
21639;SDS011;10981;45.462;10.974;2024-03-25T13:11:15;4.35;;;2.20;;
21639;SDS011;10981;45.462;10.974;2024-03-25T13:13:43;3.67;;;2.00;;
21639;SDS011;10981;45.462;10.974;2024-03-25T13:16:10;2.97;;;2.05;;
21639;SDS011;10981;45.462;10.974;2024-03-25T13:18:40;4.28;;;1.70;;
21639;SDS011;10981;45.462;10.974;2024-03-25T13:21:07;2.40;;;2.03;;
21639;SDS011;10981;45.462;10.974;2024-03-25T13:23:34;1.67;;;1.58;;
21639;SDS011;10981;45.462;10.974;2024-03-25T13:26:02;3.30;;;1.80;;
21639;SDS011;10981;45.462;10.974;2024-03-25T13:28:30;2.78;;;1.90;;
21639;SDS011;10981;45.462;10.974;2024-03-25T13:30:57;2.38;;;2.17;;
21639;SDS011;10981;45.462;10.974;2024-03-25T13:33:24;3.60;;;2.30;;
21639;SDS011;10981;45.462;10.974;2024-03-25T13:35:51;4.25;;;2.42;;
21639;SDS011;10981;45.462;10.974;2024-03-25T13:38:18;2.60;;;1.88;;
21639;SDS011;10981;45.462;10.974;2024-03-25T13:40:46;4.72;;;2.45;;
21639;SDS011;10981;45.462;10.974;2024-03-25T13:43:14;4.10;;;2.78;;
21639;SDS011;10981;45.462;10.974;2024-03-25T13:45:45;4.57;;;2.60;;
21639;SDS011;10981;45.462;10.974;2024-03-25T13:48:15;3.75;;;2.55;;
21639;SDS011;10981;45.462;10.974;2024-03-25T13:50:42;4.05;;;2.70;;
21639;SDS011;10981;45.462;10.974;2024-03-25T13:53:13;2.53;;;2.17;;
21639;SDS011;10981;45.462;10.974;2024-03-25T13:55:41;3.47;;;2.20;;
21639;SDS011;10981;45.462;10.974;2024-03-25T13:58:08;4.22;;;2.13;;
21639;SDS011;10981;45.462;10.974;2024-03-25T14:00:36;5.50;;;3.45;;
21639;SDS011;10981;45.462;10.974;2024-03-25T14:03:03;2.90;;;2.45;;
21639;SDS011;10981;45.462;10.974;2024-03-25T14:05:30;3.28;;;2.50;;
21639;SDS011;10981;45.462;10.974;2024-03-25T14:08:01;3.17;;;2.33;;
21639;SDS011;10981;45.462;10.974;2024-03-25T14:10:29;3.80;;;2.17;;
21639;SDS011;10981;45.462;10.974;2024-03-25T14:12:57;3.10;;;2.25;;
21639;SDS011;10981;45.462;10.974;2024-03-25T14:15:27;3.20;;;1.98;;
21639;SDS011;10981;45.462;10.974;2024-03-25T14:17:54;2.60;;;1.83;;
21639;SDS011;10981;45.462;10.974;2024-03-25T14:20:21;3.17;;;2.03;;
21639;SDS011;10981;45.462;10.974;2024-03-25T14:22:48;2.15;;;1.88;;
21639;SDS011;10981;45.462;10.974;2024-03-25T14:25:16;1.98;;;1.73;;
21639;SDS011;10981;45.462;10.974;2024-03-25T14:27:43;2.13;;;1.75;;
21639;SDS011;10981;45.462;10.974;2024-03-25T14:30:10;1.75;;;1.65;;
21639;SDS011;10981;45.462;10.974;2024-03-25T14:32:41;2.92;;;2.10;;
21639;SDS011;10981;45.462;10.974;2024-03-25T14:35:08;2.40;;;2.20;;
21639;SDS011;10981;45.462;10.974;2024-03-25T14:37:35;3.55;;;1.95;;
21639;SDS011;10981;45.462;10.974;2024-03-25T14:40:02;2.92;;;2.03;;
21639;SDS011;10981;45.462;10.974;2024-03-25T14:42:30;2.83;;;1.85;;